Relevés horaires Eggishorn (Suisse)


Relevés horaires à Eggishorn - Lundi 20 Janv. 2020
Heure UTC1 Température [°C] Vent [km/h] Hum. [%] Pres.4 [hPa] Visi. [Km] Nébu. [octa] Préc.5 [mm] Cond.
2m. Res. Ros. Dir.2 Vit. Moy. Raf.3
23:00 -9.7 -14.6 -19.2 NNO 9.3 -- 24.1 46 700(1.3/3h) -- -- -- --
22:00 -10.3 -17.5 -21.7 ESE 16.7 -- 31.5 38 700(1.5/3h) -- -- -- --
21:00 -10.6 -18.7 -22.7 E 20.4 -- 38.9 36 700(1.5/3h) -- -- -- --
20:00 -11.7 -20.4 -19.7 ESE 22.2 -- 35.2 51 700(1.7/3h) -- -- -- --
19:00 -10.9 -20.1 -20.2 E 25.9 -- 38.9 46 700(1.7/3h) -- -- -- --
18:00 -10.6 -19 -20.4 E 22.2 -- 37.0 44 700(1.3/3h) -- -- -- --
17:00 -10.9 -20.1 -19.4 E 25.9 -- 37.0 49 700(0.5/3h) -- -- -- --
16:00 -11.5 -20.8 -19.3 E 25.9 -- 31.5 52 700(-0.3/3h) -- -- -- --
15:00 -10.5 -16.2 -23.5 E 11.1 -- 22.2 33 700(-0.4/3h) -- -- -- --
14:00 -10.1 -13.4 -26.4 SE 5.6 -- 13.0 25 700(-0.4/3h) -- -- -- --
13:00 -10.2 -10.2 -18.6 ESE 3.7 -- 18.5 50 700(-0.3/3h) -- -- -- --
12:00 -10.0 -15.6 -21.1 E 11.1 -- 25.9 40 700(0.4/3h) -- -- -- --
11:00 -8.3 -15 -20.7 E 16.7 -- 24.1 36 700(1.0/3h) -- -- -- --
10:00 -8.8 -16 -26.8 E 18.5 -- 25.9 22 700(1.7/3h) -- -- -- --
09:00 -10.3 -17.1 -25.3 ENE 14.8 -- 24.1 28 700(1.6/3h) -- -- -- --
08:00 -10.3 -17.1 -30.0 ENE 14.8 -- 24.1 18 700(1.5/3h) -- -- -- --
07:00 -12.1 -19.8 -22.9 ENE 16.7 -- 24.1 40 700(1.1/3h) -- -- -- --
06:00 -13.6 -22.5 -18.4 E 20.4 -- 25.9 67 700(0.7/3h) -- -- -- --
05:00 -12.3 -20 -18.1 ESE 16.7 -- 24.1 62 700(0.2/3h) -- -- -- --
04:00 -12.2 -20.3 -23.0 E 18.5 -- 25.9 40 700(0.4/3h) -- -- -- --
03:00 -11.5 -19 -27.2 E 16.7 -- 25.9 26 700(0.4/3h) -- -- -- --
02:00 -11.9 -19 -26.6 E 14.8 -- 25.9 28 700(0.5/3h) -- -- -- --
01:00 -12.5 -20.7 -26.4 ENE 18.5 -- 25.9 30 700(0.6/3h) -- -- -- --
00:00 -12.3 -20.8 -26.2 ENE 20.4 -- 50.0 30 700(0.9/3h) -- -- -- --

1 Coordinated Universal Time. Actuellement il est 14:00 locale et 12:00 UTC.

2 Le vent souffle depuis la direction indiquée vers la direction oposée.

3 Les rafales max. sont disponible 40 min après l'heure du relevé.

4 Pour les stations d'altitude (plus de 600m) le géopotentiel du niveau le plus proche de la pression obligatoire est indiqué.

5 Les stations disposant d'un diffuseur peuvent indiquer "trace". Cela signifie que des précipitations ont touchés le sol mais que la quantité est inférieure à 0.1 mm.

Copyright

Les données affichées sur cette page sont la propriété exclusive de Météo Suisse.

Récapitulatif de la journée
Température [°C] Vent [km/h] Ensoleillement4 [h] Precipitations totale5 [mm] Pression [Hpa]
Min1 Max.2 Moy.3 Max. Min Max.
-14.3 -7.8 0 50.0 7 h 42 min 0 700.0 700.0

1 Température minimale relevée entre 18:00 UTC la veille et 18:00 UTC le jour donné.

2 Température maximale relevée entre 06:00 UTC le jour donné et 06:00 UTC le lendemain.

3 Vent moyen de la journée basé sur les relevés horaires.

4 Ensoleillement en heures relevé entre 06:00 UTC la veille et 06:00 UTC le jour donné.

5 Précipitations totales tombées entre 06:00 UTC la jour donné et 06:00 UTC le lendemain.

Graphiques horaires